sensor_id;sensor_type;location;lat;lon;timestamp;temperature;humidity
5834;DHT22;2943;48.012;10.968;2022-10-18T00:00:03;12.40;99.90
5834;DHT22;2943;48.012;10.968;2022-10-18T00:02:30;12.30;99.90
5834;DHT22;2943;48.012;10.968;2022-10-18T00:04:57;12.30;99.90
5834;DHT22;2943;48.012;10.968;2022-10-18T00:07:24;12.30;99.90
5834;DHT22;2943;48.012;10.968;2022-10-18T00:09:50;12.40;99.90
5834;DHT22;2943;48.012;10.968;2022-10-18T00:12:19;12.50;99.90
5834;DHT22;2943;48.012;10.968;2022-10-18T00:14:47;12.50;99.90
5834;DHT22;2943;48.012;10.968;2022-10-18T00:17:14;12.50;99.90
5834;DHT22;2943;48.012;10.968;2022-10-18T00:19:41;12.40;99.90
5834;DHT22;2943;48.012;10.968;2022-10-18T00:22:08;12.40;99.90
5834;DHT22;2943;48.012;10.968;2022-10-18T00:24:34;12.40;99.90
5834;DHT22;2943;48.012;10.968;2022-10-18T00:27:01;12.40;99.90
5834;DHT22;2943;48.012;10.968;2022-10-18T00:29:29;12.40;99.90
5834;DHT22;2943;48.012;10.968;2022-10-18T00:31:56;12.30;99.90
5834;DHT22;2943;48.012;10.968;2022-10-18T00:34:23;12.30;99.90
5834;DHT22;2943;48.012;10.968;2022-10-18T00:36:50;12.20;99.90
5834;DHT22;2943;48.012;10.968;2022-10-18T00:39:18;12.20;99.90
5834;DHT22;2943;48.012;10.968;2022-10-18T00:41:45;12.10;99.90
5834;DHT22;2943;48.012;10.968;2022-10-18T00:47:23;12.10;99.90
5834;DHT22;2943;48.012;10.968;2022-10-18T00:49:52;12.00;99.90
5834;DHT22;2943;48.012;10.968;2022-10-18T00:52:25;12.00;99.90
5834;DHT22;2943;48.012;10.968;2022-10-18T00:54:54;11.90;99.90
5834;DHT22;2943;48.012;10.968;2022-10-18T00:57:23;11.80;99.90
5834;DHT22;2943;48.012;10.968;2022-10-18T00:59:50;11.70;99.90
5834;DHT22;2943;48.012;10.968;2022-10-18T01:02:17;11.60;99.90
5834;DHT22;2943;48.012;10.968;2022-10-18T01:04:46;11.60;99.90
5834;DHT22;2943;48.012;10.968;2022-10-18T01:07:22;11.60;99.90
5834;DHT22;2943;48.012;10.968;2022-10-18T01:09:56;11.60;99.90
5834;DHT22;2943;48.012;10.968;2022-10-18T01:12:31;11.50;99.90
5834;DHT22;2943;48.012;10.968;2022-10-18T01:15:05;11.50;99.90
5834;DHT22;2943;48.012;10.968;2022-10-18T01:17:44;11.50;99.90
5834;DHT22;2943;48.012;10.968;2022-10-18T01:23:38;11.50;99.90
5834;DHT22;2943;48.012;10.968;2022-10-18T01:26:22;11.50;99.90
5834;DHT22;2943;48.012;10.968;2022-10-18T01:29:01;11.50;99.90
5834;DHT22;2943;48.012;10.968;2022-10-18T01:31:38;11.50;99.90
5834;DHT22;2943;48.012;10.968;2022-10-18T01:34:08;11.40;99.90
5834;DHT22;2943;48.012;10.968;2022-10-18T01:36:38;11.40;99.90
5834;DHT22;2943;48.012;10.968;2022-10-18T01:39:08;11.40;99.90
5834;DHT22;2943;48.012;10.968;2022-10-18T01:41:39;11.30;99.90
5834;DHT22;2943;48.012;10.968;2022-10-18T01:44:09;11.20;99.90
5834;DHT22;2943;48.012;10.968;2022-10-18T01:46:40;11.10;99.90
5834;DHT22;2943;48.012;10.968;2022-10-18T01:49:08;11.10;99.90
5834;DHT22;2943;48.012;10.968;2022-10-18T01:51:35;11.00;99.90
5834;DHT22;2943;48.012;10.968;2022-10-18T01:54:02;11.00;99.90
5834;DHT22;2943;48.012;10.968;2022-10-18T01:56:36;11.00;99.90
5834;DHT22;2943;48.012;10.968;2022-10-18T01:59:21;11.00;99.90
5834;DHT22;2943;48.012;10.968;2022-10-18T02:01:56;11.00;99.90
5834;DHT22;2943;48.012;10.968;2022-10-18T02:04:30;11.00;99.90
5834;DHT22;2943;48.012;10.968;2022-10-18T02:07:05;11.00;99.90
5834;DHT22;2943;48.012;10.968;2022-10-18T02:09:36;11.00;99.90
5834;DHT22;2943;48.012;10.968;2022-10-18T02:12:07;11.00;99.90
5834;DHT22;2943;48.012;10.968;2022-10-18T02:14:36;11.00;99.90
5834;DHT22;2943;48.012;10.968;2022-10-18T02:17:07;11.10;99.90
5834;DHT22;2943;48.012;10.968;2022-10-18T02:19:38;11.00;99.90
5834;DHT22;2943;48.012;10.968;2022-10-18T02:22:07;11.10;99.90
5834;DHT22;2943;48.012;10.968;2022-10-18T02:24:37;11.10;99.90
5834;DHT22;2943;48.012;10.968;2022-10-18T02:27:04;11.10;99.90
5834;DHT22;2943;48.012;10.968;2022-10-18T02:29:32;11.10;99.90
5834;DHT22;2943;48.012;10.968;2022-10-18T02:32:05;11.10;99.90
5834;DHT22;2943;48.012;10.968;2022-10-18T02:34:36;11.00;99.90
5834;DHT22;2943;48.012;10.968;2022-10-18T02:37:05;11.00;99.90
5834;DHT22;2943;48.012;10.968;2022-10-18T02:39:35;11.00;99.90
5834;DHT22;2943;48.012;10.968;2022-10-18T02:42:03;11.00;99.90
5834;DHT22;2943;48.012;10.968;2022-10-18T02:44:32;11.00;99.90
5834;DHT22;2943;48.012;10.968;2022-10-18T02:46:59;11.00;99.90
5834;DHT22;2943;48.012;10.968;2022-10-18T02:49:27;11.00;99.90
5834;DHT22;2943;48.012;10.968;2022-10-18T02:51:54;11.00;99.90
5834;DHT22;2943;48.012;10.968;2022-10-18T02:54:21;11.10;99.90
5834;DHT22;2943;48.012;10.968;2022-10-18T02:56:48;11.10;99.90
5834;DHT22;2943;48.012;10.968;2022-10-18T02:59:16;11.10;99.90
5834;DHT22;2943;48.012;10.968;2022-10-18T03:01:43;11.10;99.90
5834;DHT22;2943;48.012;10.968;2022-10-18T03:04:10;11.10;99.90
5834;DHT22;2943;48.012;10.968;2022-10-18T03:06:38;11.20;99.90
5834;DHT22;2943;48.012;10.968;2022-10-18T03:09:05;11.20;99.90
5834;DHT22;2943;48.012;10.968;2022-10-18T03:11:32;11.20;99.90
5834;DHT22;2943;48.012;10.968;2022-10-18T03:13:59;11.20;99.90
5834;DHT22;2943;48.012;10.968;2022-10-18T03:16:26;11.20;99.90
5834;DHT22;2943;48.012;10.968;2022-10-18T03:18:53;11.20;99.90
5834;DHT22;2943;48.012;10.968;2022-10-18T03:21:20;11.20;99.90
5834;DHT22;2943;48.012;10.968;2022-10-18T03:23:48;11.20;99.90
5834;DHT22;2943;48.012;10.968;2022-10-18T03:26:15;11.20;99.90
5834;DHT22;2943;48.012;10.968;2022-10-18T03:28:42;11.30;99.90
5834;DHT22;2943;48.012;10.968;2022-10-18T03:31:08;11.30;99.90
5834;DHT22;2943;48.012;10.968;2022-10-18T03:33:35;11.30;99.90
5834;DHT22;2943;48.012;10.968;2022-10-18T03:36:02;11.30;99.90
5834;DHT22;2943;48.012;10.968;2022-10-18T03:38:29;11.30;99.90
5834;DHT22;2943;48.012;10.968;2022-10-18T03:40:57;11.30;99.90
5834;DHT22;2943;48.012;10.968;2022-10-18T03:43:24;11.30;99.90
5834;DHT22;2943;48.012;10.968;2022-10-18T03:45:51;11.30;99.90
5834;DHT22;2943;48.012;10.968;2022-10-18T03:48:18;11.30;99.90
5834;DHT22;2943;48.012;10.968;2022-10-18T03:50:45;11.30;99.90
5834;DHT22;2943;48.012;10.968;2022-10-18T03:53:12;11.30;99.90
5834;DHT22;2943;48.012;10.968;2022-10-18T03:55:39;11.30;99.90
5834;DHT22;2943;48.012;10.968;2022-10-18T03:58:08;11.30;99.90
5834;DHT22;2943;48.012;10.968;2022-10-18T04:00:35;11.30;99.90
5834;DHT22;2943;48.012;10.968;2022-10-18T04:03:01;11.30;99.90
5834;DHT22;2943;48.012;10.968;2022-10-18T04:05:28;11.30;99.90
5834;DHT22;2943;48.012;10.968;2022-10-18T04:07:56;11.40;99.90
5834;DHT22;2943;48.012;10.968;2022-10-18T04:10:23;11.40;99.90
5834;DHT22;2943;48.012;10.968;2022-10-18T04:12:51;11.40;99.90
5834;DHT22;2943;48.012;10.968;2022-10-18T04:15:19;11.50;99.90
5834;DHT22;2943;48.012;10.968;2022-10-18T04:17:46;11.50;99.90
5834;DHT22;2943;48.012;10.968;2022-10-18T04:20:13;11.60;99.90
5834;DHT22;2943;48.012;10.968;2022-10-18T04:22:40;11.60;99.90
5834;DHT22;2943;48.012;10.968;2022-10-18T04:25:07;11.60;99.90
5834;DHT22;2943;48.012;10.968;2022-10-18T04:27:34;11.70;99.90
5834;DHT22;2943;48.012;10.968;2022-10-18T04:30:01;11.70;99.90
5834;DHT22;2943;48.012;10.968;2022-10-18T04:32:29;11.70;99.90
5834;DHT22;2943;48.012;10.968;2022-10-18T04:34:56;11.80;99.90
5834;DHT22;2943;48.012;10.968;2022-10-18T04:37:23;11.80;99.90
5834;DHT22;2943;48.012;10.968;2022-10-18T04:39:50;11.80;99.90
5834;DHT22;2943;48.012;10.968;2022-10-18T04:42:16;11.80;99.90
5834;DHT22;2943;48.012;10.968;2022-10-18T04:44:43;11.80;99.90
5834;DHT22;2943;48.012;10.968;2022-10-18T04:47:10;11.90;99.90
5834;DHT22;2943;48.012;10.968;2022-10-18T04:49:38;11.90;99.90
5834;DHT22;2943;48.012;10.968;2022-10-18T04:52:05;11.90;99.90
5834;DHT22;2943;48.012;10.968;2022-10-18T04:54:32;11.90;99.90
5834;DHT22;2943;48.012;10.968;2022-10-18T04:56:59;12.00;99.90
5834;DHT22;2943;48.012;10.968;2022-10-18T04:59:26;12.00;99.90
5834;DHT22;2943;48.012;10.968;2022-10-18T05:01:53;12.00;99.90
5834;DHT22;2943;48.012;10.968;2022-10-18T05:04:19;12.10;99.90
5834;DHT22;2943;48.012;10.968;2022-10-18T05:06:48;12.10;99.90
5834;DHT22;2943;48.012;10.968;2022-10-18T05:09:14;12.10;99.90
5834;DHT22;2943;48.012;10.968;2022-10-18T05:11:41;12.10;99.90
5834;DHT22;2943;48.012;10.968;2022-10-18T05:14:08;12.10;99.90
5834;DHT22;2943;48.012;10.968;2022-10-18T05:16:35;12.10;99.90
5834;DHT22;2943;48.012;10.968;2022-10-18T05:19:03;12.20;99.90
5834;DHT22;2943;48.012;10.968;2022-10-18T05:21:30;12.20;99.90
5834;DHT22;2943;48.012;10.968;2022-10-18T05:23:58;12.20;99.90
5834;DHT22;2943;48.012;10.968;2022-10-18T05:26:25;12.20;99.90
5834;DHT22;2943;48.012;10.968;2022-10-18T05:28:52;12.20;99.90
5834;DHT22;2943;48.012;10.968;2022-10-18T05:31:19;12.20;99.90
5834;DHT22;2943;48.012;10.968;2022-10-18T05:33:46;12.20;99.90
5834;DHT22;2943;48.012;10.968;2022-10-18T05:36:13;12.20;99.90
5834;DHT22;2943;48.012;10.968;2022-10-18T05:38:40;12.20;99.90
5834;DHT22;2943;48.012;10.968;2022-10-18T05:41:09;12.20;99.90
5834;DHT22;2943;48.012;10.968;2022-10-18T05:43:36;12.20;99.90
5834;DHT22;2943;48.012;10.968;2022-10-18T05:46:03;12.20;99.90
5834;DHT22;2943;48.012;10.968;2022-10-18T05:48:32;12.20;99.90
5834;DHT22;2943;48.012;10.968;2022-10-18T05:50:59;12.20;99.90
5834;DHT22;2943;48.012;10.968;2022-10-18T05:53:26;12.30;99.90
5834;DHT22;2943;48.012;10.968;2022-10-18T05:55:53;12.30;99.90
5834;DHT22;2943;48.012;10.968;2022-10-18T05:58:21;12.30;99.90
5834;DHT22;2943;48.012;10.968;2022-10-18T06:00:48;12.30;99.90
5834;DHT22;2943;48.012;10.968;2022-10-18T06:03:16;12.30;99.90
5834;DHT22;2943;48.012;10.968;2022-10-18T06:05:43;12.30;99.90
5834;DHT22;2943;48.012;10.968;2022-10-18T06:08:10;12.40;99.90
5834;DHT22;2943;48.012;10.968;2022-10-18T06:10:38;12.40;99.90
5834;DHT22;2943;48.012;10.968;2022-10-18T06:13:05;12.40;99.90
5834;DHT22;2943;48.012;10.968;2022-10-18T06:15:33;12.40;99.90
5834;DHT22;2943;48.012;10.968;2022-10-18T06:18:00;12.40;99.90
5834;DHT22;2943;48.012;10.968;2022-10-18T06:20:26;12.50;99.90
5834;DHT22;2943;48.012;10.968;2022-10-18T06:22:53;12.50;99.90
5834;DHT22;2943;48.012;10.968;2022-10-18T06:25:20;12.50;99.90
5834;DHT22;2943;48.012;10.968;2022-10-18T06:27:47;12.50;99.90
5834;DHT22;2943;48.012;10.968;2022-10-18T06:30:14;12.60;99.90
5834;DHT22;2943;48.012;10.968;2022-10-18T06:32:42;12.60;99.90
5834;DHT22;2943;48.012;10.968;2022-10-18T06:35:09;12.60;99.90
5834;DHT22;2943;48.012;10.968;2022-10-18T06:37:36;12.60;99.90
5834;DHT22;2943;48.012;10.968;2022-10-18T06:40:04;12.70;99.90
5834;DHT22;2943;48.012;10.968;2022-10-18T06:42:31;12.70;99.90
5834;DHT22;2943;48.012;10.968;2022-10-18T06:44:57;12.70;99.90
5834;DHT22;2943;48.012;10.968;2022-10-18T06:47:25;12.70;99.90
5834;DHT22;2943;48.012;10.968;2022-10-18T06:49:53;12.70;99.90
5834;DHT22;2943;48.012;10.968;2022-10-18T06:52:20;12.70;99.90
5834;DHT22;2943;48.012;10.968;2022-10-18T06:54:50;12.80;99.90
5834;DHT22;2943;48.012;10.968;2022-10-18T06:57:17;13.00;99.90
5834;DHT22;2943;48.012;10.968;2022-10-18T06:59:45;13.00;99.90
5834;DHT22;2943;48.012;10.968;2022-10-18T07:02:14;13.10;99.90
5834;DHT22;2943;48.012;10.968;2022-10-18T07:04:42;13.10;99.90
5834;DHT22;2943;48.012;10.968;2022-10-18T07:07:10;13.10;99.90
5834;DHT22;2943;48.012;10.968;2022-10-18T07:09:37;13.10;99.90
5834;DHT22;2943;48.012;10.968;2022-10-18T07:12:05;13.20;99.90
5834;DHT22;2943;48.012;10.968;2022-10-18T07:14:32;13.20;99.90
5834;DHT22;2943;48.012;10.968;2022-10-18T07:16:59;13.20;99.90
5834;DHT22;2943;48.012;10.968;2022-10-18T07:19:26;13.20;99.90
5834;DHT22;2943;48.012;10.968;2022-10-18T07:21:53;13.30;99.90
5834;DHT22;2943;48.012;10.968;2022-10-18T07:24:21;13.30;99.90
5834;DHT22;2943;48.012;10.968;2022-10-18T07:26:48;13.30;99.90
5834;DHT22;2943;48.012;10.968;2022-10-18T07:29:15;13.30;99.90
5834;DHT22;2943;48.012;10.968;2022-10-18T07:31:42;13.40;99.90
5834;DHT22;2943;48.012;10.968;2022-10-18T07:34:11;13.40;99.90
5834;DHT22;2943;48.012;10.968;2022-10-18T07:36:39;13.50;99.90
5834;DHT22;2943;48.012;10.968;2022-10-18T07:39:06;13.50;99.90
5834;DHT22;2943;48.012;10.968;2022-10-18T07:41:34;13.70;99.90
5834;DHT22;2943;48.012;10.968;2022-10-18T07:44:03;13.80;99.90
5834;DHT22;2943;48.012;10.968;2022-10-18T07:46:30;13.90;99.90
5834;DHT22;2943;48.012;10.968;2022-10-18T07:48:57;14.00;99.90
5834;DHT22;2943;48.012;10.968;2022-10-18T07:51:25;14.20;99.90
5834;DHT22;2943;48.012;10.968;2022-10-18T07:53:52;14.30;99.90
5834;DHT22;2943;48.012;10.968;2022-10-18T07:56:20;14.50;99.90
5834;DHT22;2943;48.012;10.968;2022-10-18T07:58:49;14.60;99.90
5834;DHT22;2943;48.012;10.968;2022-10-18T08:01:17;14.70;99.90
5834;DHT22;2943;48.012;10.968;2022-10-18T08:03:45;14.80;99.90
5834;DHT22;2943;48.012;10.968;2022-10-18T08:06:13;14.90;99.90
5834;DHT22;2943;48.012;10.968;2022-10-18T08:08:41;15.00;99.90
5834;DHT22;2943;48.012;10.968;2022-10-18T08:11:11;15.10;99.90
5834;DHT22;2943;48.012;10.968;2022-10-18T08:13:39;15.20;99.90
5834;DHT22;2943;48.012;10.968;2022-10-18T08:16:09;15.20;99.90
5834;DHT22;2943;48.012;10.968;2022-10-18T08:18:36;15.30;99.90
5834;DHT22;2943;48.012;10.968;2022-10-18T08:21:06;15.40;99.90
5834;DHT22;2943;48.012;10.968;2022-10-18T08:23:33;15.50;99.90
5834;DHT22;2943;48.012;10.968;2022-10-18T08:26:00;15.60;99.90
5834;DHT22;2943;48.012;10.968;2022-10-18T08:28:27;15.70;99.90
5834;DHT22;2943;48.012;10.968;2022-10-18T08:30:54;15.90;99.90
5834;DHT22;2943;48.012;10.968;2022-10-18T08:33:23;16.00;99.90
5834;DHT22;2943;48.012;10.968;2022-10-18T08:35:56;16.10;99.90
5834;DHT22;2943;48.012;10.968;2022-10-18T08:38:23;16.20;99.90
5834;DHT22;2943;48.012;10.968;2022-10-18T08:40:50;16.20;99.90
5834;DHT22;2943;48.012;10.968;2022-10-18T08:43:25;16.30;99.90
5834;DHT22;2943;48.012;10.968;2022-10-18T08:45:55;16.30;99.90
5834;DHT22;2943;48.012;10.968;2022-10-18T08:48:30;16.30;99.90
5834;DHT22;2943;48.012;10.968;2022-10-18T08:50:58;16.30;99.90
5834;DHT22;2943;48.012;10.968;2022-10-18T08:53:28;16.40;99.90
5834;DHT22;2943;48.012;10.968;2022-10-18T08:56:01;16.40;99.90
5834;DHT22;2943;48.012;10.968;2022-10-18T08:58:31;16.40;99.90
5834;DHT22;2943;48.012;10.968;2022-10-18T09:01:05;16.40;99.90
5834;DHT22;2943;48.012;10.968;2022-10-18T09:03:53;16.50;99.90
5834;DHT22;2943;48.012;10.968;2022-10-18T09:06:27;16.50;99.90
5834;DHT22;2943;48.012;10.968;2022-10-18T09:09:21;16.50;99.90
5834;DHT22;2943;48.012;10.968;2022-10-18T09:11:57;16.60;99.90
5834;DHT22;2943;48.012;10.968;2022-10-18T09:14:46;16.60;99.90
5834;DHT22;2943;48.012;10.968;2022-10-18T09:17:22;16.60;99.90
5834;DHT22;2943;48.012;10.968;2022-10-18T09:20:02;16.60;99.90
5834;DHT22;2943;48.012;10.968;2022-10-18T09:22:40;16.70;99.90
5834;DHT22;2943;48.012;10.968;2022-10-18T09:25:17;16.70;99.90
5834;DHT22;2943;48.012;10.968;2022-10-18T09:27:52;16.70;99.90
5834;DHT22;2943;48.012;10.968;2022-10-18T09:30:29;16.70;99.90
5834;DHT22;2943;48.012;10.968;2022-10-18T09:33:05;16.80;99.90
5834;DHT22;2943;48.012;10.968;2022-10-18T09:35:41;16.80;99.90
5834;DHT22;2943;48.012;10.968;2022-10-18T09:38:10;16.80;99.90
5834;DHT22;2943;48.012;10.968;2022-10-18T09:40:47;16.80;99.90
5834;DHT22;2943;48.012;10.968;2022-10-18T09:43:19;16.80;99.90
5834;DHT22;2943;48.012;10.968;2022-10-18T09:45:47;16.80;99.90
5834;DHT22;2943;48.012;10.968;2022-10-18T09:48:17;16.90;99.90
5834;DHT22;2943;48.012;10.968;2022-10-18T09:50:54;16.90;99.90
5834;DHT22;2943;48.012;10.968;2022-10-18T09:53:29;16.90;99.90
5834;DHT22;2943;48.012;10.968;2022-10-18T09:56:02;17.00;99.90
5834;DHT22;2943;48.012;10.968;2022-10-18T09:58:40;17.00;99.90
5834;DHT22;2943;48.012;10.968;2022-10-18T10:01:10;17.10;99.90
5834;DHT22;2943;48.012;10.968;2022-10-18T10:03:38;17.10;99.90
5834;DHT22;2943;48.012;10.968;2022-10-18T10:06:25;17.20;99.90
5834;DHT22;2943;48.012;10.968;2022-10-18T10:08:57;17.30;99.90
5834;DHT22;2943;48.012;10.968;2022-10-18T10:11:30;17.30;99.90
5834;DHT22;2943;48.012;10.968;2022-10-18T10:14:07;17.40;99.90
5834;DHT22;2943;48.012;10.968;2022-10-18T10:16:42;17.50;99.90
5834;DHT22;2943;48.012;10.968;2022-10-18T10:19:16;17.70;99.90
5834;DHT22;2943;48.012;10.968;2022-10-18T10:21:46;17.70;99.90
5834;DHT22;2943;48.012;10.968;2022-10-18T10:24:28;17.80;99.90
5834;DHT22;2943;48.012;10.968;2022-10-18T10:27:01;17.90;99.90
5834;DHT22;2943;48.012;10.968;2022-10-18T10:29:50;18.00;99.90
5834;DHT22;2943;48.012;10.968;2022-10-18T10:32:20;18.20;99.90
5834;DHT22;2943;48.012;10.968;2022-10-18T10:34:48;18.20;99.90
5834;DHT22;2943;48.012;10.968;2022-10-18T10:37:29;18.30;99.90
5834;DHT22;2943;48.012;10.968;2022-10-18T10:40:11;18.40;99.90
5834;DHT22;2943;48.012;10.968;2022-10-18T10:42:51;18.50;99.90
5834;DHT22;2943;48.012;10.968;2022-10-18T10:45:21;18.60;99.90
5834;DHT22;2943;48.012;10.968;2022-10-18T10:47:49;18.70;99.90
5834;DHT22;2943;48.012;10.968;2022-10-18T10:50:23;18.70;99.90
5834;DHT22;2943;48.012;10.968;2022-10-18T10:52:53;18.80;99.90
5834;DHT22;2943;48.012;10.968;2022-10-18T10:55:23;18.90;99.90
5834;DHT22;2943;48.012;10.968;2022-10-18T10:57:54;19.00;99.90
5834;DHT22;2943;48.012;10.968;2022-10-18T11:00:40;19.10;99.90
5834;DHT22;2943;48.012;10.968;2022-10-18T11:03:11;19.10;99.90
5834;DHT22;2943;48.012;10.968;2022-10-18T11:05:44;19.20;99.90
5834;DHT22;2943;48.012;10.968;2022-10-18T11:08:14;19.30;99.90
5834;DHT22;2943;48.012;10.968;2022-10-18T11:10:52;19.30;99.90
5834;DHT22;2943;48.012;10.968;2022-10-18T11:13:27;19.40;99.90
5834;DHT22;2943;48.012;10.968;2022-10-18T11:15:59;19.50;99.90
5834;DHT22;2943;48.012;10.968;2022-10-18T11:18:29;19.50;99.90
5834;DHT22;2943;48.012;10.968;2022-10-18T11:21:01;19.60;99.90
5834;DHT22;2943;48.012;10.968;2022-10-18T11:23:35;19.70;99.90
5834;DHT22;2943;48.012;10.968;2022-10-18T11:26:27;19.70;99.90
5834;DHT22;2943;48.012;10.968;2022-10-18T11:31:48;19.90;99.90
5834;DHT22;2943;48.012;10.968;2022-10-18T11:34:31;19.90;99.90
5834;DHT22;2943;48.012;10.968;2022-10-18T11:37:06;20.00;99.90
5834;DHT22;2943;48.012;10.968;2022-10-18T11:39:45;20.10;99.90
5834;DHT22;2943;48.012;10.968;2022-10-18T11:42:20;20.10;99.90
5834;DHT22;2943;48.012;10.968;2022-10-18T11:44:59;20.10;99.90
5834;DHT22;2943;48.012;10.968;2022-10-18T11:47:37;20.10;99.90
5834;DHT22;2943;48.012;10.968;2022-10-18T11:50:11;20.20;99.90
5834;DHT22;2943;48.012;10.968;2022-10-18T11:52:49;20.20;99.90
5834;DHT22;2943;48.012;10.968;2022-10-18T11:55:30;20.20;99.90
5834;DHT22;2943;48.012;10.968;2022-10-18T11:58:06;20.30;99.90
5834;DHT22;2943;48.012;10.968;2022-10-18T12:00:45;20.30;99.90
5834;DHT22;2943;48.012;10.968;2022-10-18T12:03:26;20.30;99.90
5834;DHT22;2943;48.012;10.968;2022-10-18T12:05:56;20.40;99.90
5834;DHT22;2943;48.012;10.968;2022-10-18T12:08:26;20.30;99.90
5834;DHT22;2943;48.012;10.968;2022-10-18T12:10:58;20.30;99.90
5834;DHT22;2943;48.012;10.968;2022-10-18T12:13:32;20.30;99.90
5834;DHT22;2943;48.012;10.968;2022-10-18T12:16:02;20.30;99.90
5834;DHT22;2943;48.012;10.968;2022-10-18T12:18:31;20.30;99.90
5834;DHT22;2943;48.012;10.968;2022-10-18T12:20:58;20.30;99.90
5834;DHT22;2943;48.012;10.968;2022-10-18T12:23:35;20.30;99.90
5834;DHT22;2943;48.012;10.968;2022-10-18T12:26:05;20.30;99.90
5834;DHT22;2943;48.012;10.968;2022-10-18T12:28:43;20.40;99.90
5834;DHT22;2943;48.012;10.968;2022-10-18T12:31:19;20.40;99.90
5834;DHT22;2943;48.012;10.968;2022-10-18T12:33:49;20.40;99.90
5834;DHT22;2943;48.012;10.968;2022-10-18T12:36:40;20.50;99.90
5834;DHT22;2943;48.012;10.968;2022-10-18T12:39:14;20.50;99.90
5834;DHT22;2943;48.012;10.968;2022-10-18T12:41:46;20.60;99.90
5834;DHT22;2943;48.012;10.968;2022-10-18T12:44:19;20.60;99.90
5834;DHT22;2943;48.012;10.968;2022-10-18T12:46:49;20.60;99.90
5834;DHT22;2943;48.012;10.968;2022-10-18T12:49:20;20.60;99.90
5834;DHT22;2943;48.012;10.968;2022-10-18T12:51:51;20.70;99.90
5834;DHT22;2943;48.012;10.968;2022-10-18T12:54:22;20.70;99.90
5834;DHT22;2943;48.012;10.968;2022-10-18T12:56:52;20.70;99.90
5834;DHT22;2943;48.012;10.968;2022-10-18T12:59:49;20.70;99.90
5834;DHT22;2943;48.012;10.968;2022-10-18T13:02:31;20.60;99.90
5834;DHT22;2943;48.012;10.968;2022-10-18T13:04:59;20.70;99.90
5834;DHT22;2943;48.012;10.968;2022-10-18T13:07:35;20.70;99.90
5834;DHT22;2943;48.012;10.968;2022-10-18T13:10:39;20.70;99.90
5834;DHT22;2943;48.012;10.968;2022-10-18T13:13:31;20.70;99.90
5834;DHT22;2943;48.012;10.968;2022-10-18T13:16:05;20.70;99.90
5834;DHT22;2943;48.012;10.968;2022-10-18T13:18:45;20.70;99.90
5834;DHT22;2943;48.012;10.968;2022-10-18T13:21:29;20.70;99.90
5834;DHT22;2943;48.012;10.968;2022-10-18T13:24:17;20.70;99.90
5834;DHT22;2943;48.012;10.968;2022-10-18T13:27:01;20.70;99.90
5834;DHT22;2943;48.012;10.968;2022-10-18T13:30:00;20.60;99.90
5834;DHT22;2943;48.012;10.968;2022-10-18T13:32:33;20.60;99.90
5834;DHT22;2943;48.012;10.968;2022-10-18T13:35:01;20.60;99.90
5834;DHT22;2943;48.012;10.968;2022-10-18T13:37:28;20.50;99.90
5834;DHT22;2943;48.012;10.968;2022-10-18T13:40:13;20.50;99.90
5834;DHT22;2943;48.012;10.968;2022-10-18T13:42:40;20.40;99.90
5834;DHT22;2943;48.012;10.968;2022-10-18T13:45:54;20.30;99.90
5834;DHT22;2943;48.012;10.968;2022-10-18T13:48:43;20.20;99.90
5834;DHT22;2943;48.012;10.968;2022-10-18T13:51:30;20.10;99.90
5834;DHT22;2943;48.012;10.968;2022-10-18T13:54:04;20.00;99.90
5834;DHT22;2943;48.012;10.968;2022-10-18T13:56:51;20.00;99.90
5834;DHT22;2943;48.012;10.968;2022-10-18T13:59:48;19.90;99.90
5834;DHT22;2943;48.012;10.968;2022-10-18T14:02:41;19.90;99.90
5834;DHT22;2943;48.012;10.968;2022-10-18T14:05:23;19.80;99.90
5834;DHT22;2943;48.012;10.968;2022-10-18T14:07:58;19.80;99.90
5834;DHT22;2943;48.012;10.968;2022-10-18T14:10:34;19.80;99.90
5834;DHT22;2943;48.012;10.968;2022-10-18T14:13:06;19.80;99.90
5834;DHT22;2943;48.012;10.968;2022-10-18T14:15:42;19.80;99.90
5834;DHT22;2943;48.012;10.968;2022-10-18T14:18:14;19.80;99.90
5834;DHT22;2943;48.012;10.968;2022-10-18T14:20:44;19.90;99.90
5834;DHT22;2943;48.012;10.968;2022-10-18T14:23:16;19.80;99.90
5834;DHT22;2943;48.012;10.968;2022-10-18T14:25:45;19.80;99.90
5834;DHT22;2943;48.012;10.968;2022-10-18T14:28:13;19.80;99.90
5834;DHT22;2943;48.012;10.968;2022-10-18T14:30:52;19.80;99.90
5834;DHT22;2943;48.012;10.968;2022-10-18T14:33:32;19.80;99.90
5834;DHT22;2943;48.012;10.968;2022-10-18T14:36:05;19.80;99.90
5834;DHT22;2943;48.012;10.968;2022-10-18T14:38:34;19.80;99.90
5834;DHT22;2943;48.012;10.968;2022-10-18T14:41:10;19.90;99.90
5834;DHT22;2943;48.012;10.968;2022-10-18T14:43:38;19.80;99.90
5834;DHT22;2943;48.012;10.968;2022-10-18T14:46:14;19.90;99.90
5834;DHT22;2943;48.012;10.968;2022-10-18T14:48:51;19.80;99.90
5834;DHT22;2943;48.012;10.968;2022-10-18T14:51:18;19.90;99.90
5834;DHT22;2943;48.012;10.968;2022-10-18T14:53:45;19.80;99.90
5834;DHT22;2943;48.012;10.968;2022-10-18T14:56:22;19.80;99.90
5834;DHT22;2943;48.012;10.968;2022-10-18T14:58:50;19.80;99.90
5834;DHT22;2943;48.012;10.968;2022-10-18T15:01:19;19.80;99.90
5834;DHT22;2943;48.012;10.968;2022-10-18T15:03:48;19.70;99.90
5834;DHT22;2943;48.012;10.968;2022-10-18T15:06:17;19.70;99.90
5834;DHT22;2943;48.012;10.968;2022-10-18T15:08:46;19.70;99.90
5834;DHT22;2943;48.012;10.968;2022-10-18T15:11:15;19.60;99.90
5834;DHT22;2943;48.012;10.968;2022-10-18T15:13:47;19.50;99.90
5834;DHT22;2943;48.012;10.968;2022-10-18T15:16:16;19.50;99.90
5834;DHT22;2943;48.012;10.968;2022-10-18T15:18:59;19.50;99.90
5834;DHT22;2943;48.012;10.968;2022-10-18T15:21:26;19.40;99.90
5834;DHT22;2943;48.012;10.968;2022-10-18T15:23:53;19.40;99.90
5834;DHT22;2943;48.012;10.968;2022-10-18T15:26:24;19.40;99.90
5834;DHT22;2943;48.012;10.968;2022-10-18T15:28:54;19.40;99.90
5834;DHT22;2943;48.012;10.968;2022-10-18T15:31:26;19.30;99.90
5834;DHT22;2943;48.012;10.968;2022-10-18T15:34:06;19.30;99.90
5834;DHT22;2943;48.012;10.968;2022-10-18T15:36:35;19.20;99.90
5834;DHT22;2943;48.012;10.968;2022-10-18T15:39:14;19.20;99.90
5834;DHT22;2943;48.012;10.968;2022-10-18T15:41:46;19.20;99.90
5834;DHT22;2943;48.012;10.968;2022-10-18T15:44:23;19.10;99.90
5834;DHT22;2943;48.012;10.968;2022-10-18T15:46:52;19.10;99.90
5834;DHT22;2943;48.012;10.968;2022-10-18T15:49:53;19.00;99.90
5834;DHT22;2943;48.012;10.968;2022-10-18T15:52:38;19.00;99.90
5834;DHT22;2943;48.012;10.968;2022-10-18T15:58:20;18.90;99.90
5834;DHT22;2943;48.012;10.968;2022-10-18T16:00:49;18.90;99.90
5834;DHT22;2943;48.012;10.968;2022-10-18T16:03:17;18.90;99.90
5834;DHT22;2943;48.012;10.968;2022-10-18T16:05:46;18.80;99.90
5834;DHT22;2943;48.012;10.968;2022-10-18T16:08:20;18.80;99.90
5834;DHT22;2943;48.012;10.968;2022-10-18T16:10:47;18.70;99.90
5834;DHT22;2943;48.012;10.968;2022-10-18T16:13:15;18.60;99.90
5834;DHT22;2943;48.012;10.968;2022-10-18T16:15:42;18.50;99.90
5834;DHT22;2943;48.012;10.968;2022-10-18T16:18:13;18.30;99.90
5834;DHT22;2943;48.012;10.968;2022-10-18T16:20:40;18.30;99.90
5834;DHT22;2943;48.012;10.968;2022-10-18T16:23:20;18.10;99.90